sensor_id;sensor_type;location;lat;lon;timestamp;P1;durP1;ratioP1;P2;durP2;ratioP2
5549;SDS011;2798;42.716;23.256;2022-10-12T00:00:54;21.87;;;16.20;;
5549;SDS011;2798;42.716;23.256;2022-10-12T00:03:20;28.13;;;18.37;;
5549;SDS011;2798;42.716;23.256;2022-10-12T00:05:46;30.10;;;19.73;;
5549;SDS011;2798;42.716;23.256;2022-10-12T00:08:15;27.80;;;20.40;;
5549;SDS011;2798;42.716;23.256;2022-10-12T00:10:41;28.03;;;19.37;;
5549;SDS011;2798;42.716;23.256;2022-10-12T00:13:07;27.80;;;19.23;;
5549;SDS011;2798;42.716;23.256;2022-10-12T00:15:40;31.00;;;19.60;;
5549;SDS011;2798;42.716;23.256;2022-10-12T00:18:06;27.37;;;19.07;;
5549;SDS011;2798;42.716;23.256;2022-10-12T00:20:32;26.33;;;19.43;;
5549;SDS011;2798;42.716;23.256;2022-10-12T00:22:58;30.93;;;19.83;;
5549;SDS011;2798;42.716;23.256;2022-10-12T00:25:24;25.00;;;18.20;;
5549;SDS011;2798;42.716;23.256;2022-10-12T00:27:49;25.33;;;17.10;;
5549;SDS011;2798;42.716;23.256;2022-10-12T00:30:15;27.10;;;18.93;;
5549;SDS011;2798;42.716;23.256;2022-10-12T00:32:40;29.30;;;19.07;;
5549;SDS011;2798;42.716;23.256;2022-10-12T00:35:06;30.70;;;19.50;;
5549;SDS011;2798;42.716;23.256;2022-10-12T00:37:32;35.40;;;20.23;;
5549;SDS011;2798;42.716;23.256;2022-10-12T00:39:57;29.33;;;20.27;;
5549;SDS011;2798;42.716;23.256;2022-10-12T00:42:22;26.87;;;19.47;;
5549;SDS011;2798;42.716;23.256;2022-10-12T00:44:48;30.53;;;19.17;;
5549;SDS011;2798;42.716;23.256;2022-10-12T00:47:27;28.03;;;19.27;;
5549;SDS011;2798;42.716;23.256;2022-10-12T00:50:10;25.43;;;18.90;;
5549;SDS011;2798;42.716;23.256;2022-10-12T00:55:26;31.00;;;19.57;;
5549;SDS011;2798;42.716;23.256;2022-10-12T00:57:54;26.90;;;18.93;;
5549;SDS011;2798;42.716;23.256;2022-10-12T01:00:20;29.13;;;19.37;;
5549;SDS011;2798;42.716;23.256;2022-10-12T01:02:48;30.53;;;20.40;;
5549;SDS011;2798;42.716;23.256;2022-10-12T01:05:15;32.07;;;21.30;;
5549;SDS011;2798;42.716;23.256;2022-10-12T01:07:42;30.93;;;20.30;;
5549;SDS011;2798;42.716;23.256;2022-10-12T01:10:08;32.00;;;20.60;;
5549;SDS011;2798;42.716;23.256;2022-10-12T01:12:34;29.80;;;20.53;;
5549;SDS011;2798;42.716;23.256;2022-10-12T01:15:01;33.33;;;20.27;;
5549;SDS011;2798;42.716;23.256;2022-10-12T01:20:58;31.00;;;21.70;;
5549;SDS011;2798;42.716;23.256;2022-10-12T01:23:11;31.77;;;20.33;;
5549;SDS011;2798;42.716;23.256;2022-10-12T01:29:09;33.17;;;20.30;;
5549;SDS011;2798;42.716;23.256;2022-10-12T01:31:56;34.47;;;21.97;;
5549;SDS011;2798;42.716;23.256;2022-10-12T01:34:32;30.00;;;21.07;;
5549;SDS011;2798;42.716;23.256;2022-10-12T01:37:17;30.40;;;22.73;;
5549;SDS011;2798;42.716;23.256;2022-10-12T01:39:52;37.00;;;22.37;;
5549;SDS011;2798;42.716;23.256;2022-10-12T01:42:22;30.37;;;22.57;;
5549;SDS011;2798;42.716;23.256;2022-10-12T01:45:12;31.90;;;20.80;;
5549;SDS011;2798;42.716;23.256;2022-10-12T01:47:40;36.90;;;24.00;;
5549;SDS011;2798;42.716;23.256;2022-10-12T01:50:09;37.80;;;23.57;;
5549;SDS011;2798;42.716;23.256;2022-10-12T02:00:39;35.83;;;24.10;;
5549;SDS011;2798;42.716;23.256;2022-10-12T02:03:19;31.97;;;22.23;;
5549;SDS011;2798;42.716;23.256;2022-10-12T02:06:12;36.10;;;22.70;;
5549;SDS011;2798;42.716;23.256;2022-10-12T02:13:35;37.40;;;23.67;;
5549;SDS011;2798;42.716;23.256;2022-10-12T02:16:11;35.97;;;24.20;;
5549;SDS011;2798;42.716;23.256;2022-10-12T02:18:41;35.00;;;22.40;;
5549;SDS011;2798;42.716;23.256;2022-10-12T02:21:09;38.60;;;24.40;;
5549;SDS011;2798;42.716;23.256;2022-10-12T02:23:40;31.77;;;22.97;;
5549;SDS011;2798;42.716;23.256;2022-10-12T02:26:07;33.87;;;22.47;;
5549;SDS011;2798;42.716;23.256;2022-10-12T02:28:33;32.67;;;22.77;;
5549;SDS011;2798;42.716;23.256;2022-10-12T02:31:09;36.37;;;22.43;;
5549;SDS011;2798;42.716;23.256;2022-10-12T02:33:50;33.30;;;21.13;;
5549;SDS011;2798;42.716;23.256;2022-10-12T02:36:26;34.57;;;22.00;;
5549;SDS011;2798;42.716;23.256;2022-10-12T02:39:42;32.33;;;22.10;;
5549;SDS011;2798;42.716;23.256;2022-10-12T02:41:54;32.63;;;21.93;;
5549;SDS011;2798;42.716;23.256;2022-10-12T02:44:25;31.60;;;21.80;;
5549;SDS011;2798;42.716;23.256;2022-10-12T02:46:54;30.97;;;20.90;;
5549;SDS011;2798;42.716;23.256;2022-10-12T02:49:23;29.27;;;20.47;;
5549;SDS011;2798;42.716;23.256;2022-10-12T02:51:50;30.03;;;20.73;;
5549;SDS011;2798;42.716;23.256;2022-10-12T02:54:18;31.63;;;20.87;;
5549;SDS011;2798;42.716;23.256;2022-10-12T02:56:44;27.13;;;19.70;;
5549;SDS011;2798;42.716;23.256;2022-10-12T02:59:14;27.53;;;18.87;;
5549;SDS011;2798;42.716;23.256;2022-10-12T03:01:42;30.30;;;19.80;;
5549;SDS011;2798;42.716;23.256;2022-10-12T03:04:08;31.43;;;21.17;;
5549;SDS011;2798;42.716;23.256;2022-10-12T03:06:33;30.10;;;21.40;;
5549;SDS011;2798;42.716;23.256;2022-10-12T03:08:59;30.90;;;20.20;;
5549;SDS011;2798;42.716;23.256;2022-10-12T03:11:25;30.20;;;19.67;;
5549;SDS011;2798;42.716;23.256;2022-10-12T03:13:52;27.03;;;20.23;;
5549;SDS011;2798;42.716;23.256;2022-10-12T03:16:18;29.40;;;21.83;;
5549;SDS011;2798;42.716;23.256;2022-10-12T03:18:43;26.93;;;20.63;;
5549;SDS011;2798;42.716;23.256;2022-10-12T03:21:09;42.83;;;21.73;;
5549;SDS011;2798;42.716;23.256;2022-10-12T03:23:35;31.97;;;21.00;;
5549;SDS011;2798;42.716;23.256;2022-10-12T03:26:00;30.97;;;19.73;;
5549;SDS011;2798;42.716;23.256;2022-10-12T03:28:26;28.40;;;20.77;;
5549;SDS011;2798;42.716;23.256;2022-10-12T03:30:52;28.07;;;20.03;;
5549;SDS011;2798;42.716;23.256;2022-10-12T03:33:17;31.23;;;20.87;;
5549;SDS011;2798;42.716;23.256;2022-10-12T03:35:43;31.80;;;20.67;;
5549;SDS011;2798;42.716;23.256;2022-10-12T03:38:09;27.20;;;19.97;;
5549;SDS011;2798;42.716;23.256;2022-10-12T03:40:36;32.17;;;20.90;;
5549;SDS011;2798;42.716;23.256;2022-10-12T03:43:02;36.07;;;20.37;;
5549;SDS011;2798;42.716;23.256;2022-10-12T03:45:27;33.80;;;21.33;;
5549;SDS011;2798;42.716;23.256;2022-10-12T03:47:53;31.90;;;20.63;;
5549;SDS011;2798;42.716;23.256;2022-10-12T03:50:18;30.93;;;20.57;;
5549;SDS011;2798;42.716;23.256;2022-10-12T03:52:44;32.43;;;22.00;;
5549;SDS011;2798;42.716;23.256;2022-10-12T03:55:09;33.50;;;21.03;;
5549;SDS011;2798;42.716;23.256;2022-10-12T03:57:34;33.30;;;21.37;;
5549;SDS011;2798;42.716;23.256;2022-10-12T04:00:00;32.80;;;21.60;;
5549;SDS011;2798;42.716;23.256;2022-10-12T04:02:26;33.20;;;20.97;;
5549;SDS011;2798;42.716;23.256;2022-10-12T04:04:51;32.50;;;21.40;;
5549;SDS011;2798;42.716;23.256;2022-10-12T04:07:17;31.67;;;21.03;;
5549;SDS011;2798;42.716;23.256;2022-10-12T04:09:43;34.53;;;22.00;;
5549;SDS011;2798;42.716;23.256;2022-10-12T04:12:08;29.63;;;21.23;;
5549;SDS011;2798;42.716;23.256;2022-10-12T04:14:34;31.37;;;20.90;;
5549;SDS011;2798;42.716;23.256;2022-10-12T04:16:59;28.00;;;21.10;;
5549;SDS011;2798;42.716;23.256;2022-10-12T04:19:24;33.53;;;21.70;;
5549;SDS011;2798;42.716;23.256;2022-10-12T04:21:50;33.40;;;22.10;;
5549;SDS011;2798;42.716;23.256;2022-10-12T04:24:15;34.17;;;22.57;;
5549;SDS011;2798;42.716;23.256;2022-10-12T04:26:41;31.97;;;21.70;;
5549;SDS011;2798;42.716;23.256;2022-10-12T04:29:06;34.53;;;22.93;;
5549;SDS011;2798;42.716;23.256;2022-10-12T04:31:31;30.00;;;21.13;;
5549;SDS011;2798;42.716;23.256;2022-10-12T04:33:57;30.00;;;21.47;;
5549;SDS011;2798;42.716;23.256;2022-10-12T04:36:23;29.57;;;21.47;;
5549;SDS011;2798;42.716;23.256;2022-10-12T04:38:49;36.20;;;23.63;;
5549;SDS011;2798;42.716;23.256;2022-10-12T04:41:14;35.57;;;22.07;;
5549;SDS011;2798;42.716;23.256;2022-10-12T04:43:40;31.23;;;21.73;;
5549;SDS011;2798;42.716;23.256;2022-10-12T04:46:05;32.50;;;22.40;;
5549;SDS011;2798;42.716;23.256;2022-10-12T04:48:31;36.00;;;20.47;;
5549;SDS011;2798;42.716;23.256;2022-10-12T04:50:56;30.07;;;21.50;;
5549;SDS011;2798;42.716;23.256;2022-10-12T04:53:22;26.30;;;19.77;;
5549;SDS011;2798;42.716;23.256;2022-10-12T04:55:47;33.40;;;23.03;;
5549;SDS011;2798;42.716;23.256;2022-10-12T04:58:12;28.83;;;20.90;;
5549;SDS011;2798;42.716;23.256;2022-10-12T05:00:38;34.73;;;22.07;;
5549;SDS011;2798;42.716;23.256;2022-10-12T05:03:04;36.77;;;22.27;;
5549;SDS011;2798;42.716;23.256;2022-10-12T05:05:29;39.60;;;23.90;;
5549;SDS011;2798;42.716;23.256;2022-10-12T05:07:55;37.00;;;21.67;;
5549;SDS011;2798;42.716;23.256;2022-10-12T05:10:21;33.17;;;22.83;;
5549;SDS011;2798;42.716;23.256;2022-10-12T05:12:46;35.03;;;23.63;;
5549;SDS011;2798;42.716;23.256;2022-10-12T05:15:11;36.47;;;22.97;;
5549;SDS011;2798;42.716;23.256;2022-10-12T05:17:37;37.30;;;22.90;;
5549;SDS011;2798;42.716;23.256;2022-10-12T05:20:02;37.03;;;23.63;;
5549;SDS011;2798;42.716;23.256;2022-10-12T05:22:29;41.77;;;26.70;;
5549;SDS011;2798;42.716;23.256;2022-10-12T05:24:55;35.07;;;22.77;;
5549;SDS011;2798;42.716;23.256;2022-10-12T05:27:20;28.23;;;19.63;;
5549;SDS011;2798;42.716;23.256;2022-10-12T05:29:46;37.63;;;21.50;;
5549;SDS011;2798;42.716;23.256;2022-10-12T05:32:12;29.27;;;20.20;;
5549;SDS011;2798;42.716;23.256;2022-10-12T05:34:37;32.90;;;23.23;;
5549;SDS011;2798;42.716;23.256;2022-10-12T05:37:03;33.87;;;22.97;;
5549;SDS011;2798;42.716;23.256;2022-10-12T05:39:28;33.43;;;22.27;;
5549;SDS011;2798;42.716;23.256;2022-10-12T05:41:53;33.23;;;20.17;;
5549;SDS011;2798;42.716;23.256;2022-10-12T05:44:19;30.10;;;20.67;;
5549;SDS011;2798;42.716;23.256;2022-10-12T05:46:45;32.07;;;19.77;;
5549;SDS011;2798;42.716;23.256;2022-10-12T05:49:10;34.70;;;20.07;;
5549;SDS011;2798;42.716;23.256;2022-10-12T05:51:36;30.10;;;19.30;;
5549;SDS011;2798;42.716;23.256;2022-10-12T05:54:03;36.60;;;21.00;;
5549;SDS011;2798;42.716;23.256;2022-10-12T05:56:28;33.47;;;18.63;;
5549;SDS011;2798;42.716;23.256;2022-10-12T05:58:54;31.87;;;19.23;;
5549;SDS011;2798;42.716;23.256;2022-10-12T06:01:20;27.67;;;19.63;;
5549;SDS011;2798;42.716;23.256;2022-10-12T06:03:45;29.10;;;20.40;;
5549;SDS011;2798;42.716;23.256;2022-10-12T06:06:10;33.13;;;23.13;;
5549;SDS011;2798;42.716;23.256;2022-10-12T06:08:36;39.40;;;21.70;;
5549;SDS011;2798;42.716;23.256;2022-10-12T06:11:01;28.10;;;19.27;;
5549;SDS011;2798;42.716;23.256;2022-10-12T06:13:27;35.30;;;20.70;;
5549;SDS011;2798;42.716;23.256;2022-10-12T06:15:52;35.00;;;22.10;;
5549;SDS011;2798;42.716;23.256;2022-10-12T06:18:18;31.50;;;21.60;;
5549;SDS011;2798;42.716;23.256;2022-10-12T06:20:47;38.93;;;21.37;;
5549;SDS011;2798;42.716;23.256;2022-10-12T06:23:15;37.27;;;22.20;;
5549;SDS011;2798;42.716;23.256;2022-10-12T06:25:41;30.90;;;21.67;;
5549;SDS011;2798;42.716;23.256;2022-10-12T06:28:06;34.87;;;21.97;;
5549;SDS011;2798;42.716;23.256;2022-10-12T06:30:32;34.83;;;20.80;;
5549;SDS011;2798;42.716;23.256;2022-10-12T06:32:57;34.67;;;22.87;;
5549;SDS011;2798;42.716;23.256;2022-10-12T06:35:23;37.90;;;23.37;;
5549;SDS011;2798;42.716;23.256;2022-10-12T06:37:48;32.17;;;21.80;;
5549;SDS011;2798;42.716;23.256;2022-10-12T06:40:15;33.47;;;22.13;;
5549;SDS011;2798;42.716;23.256;2022-10-12T06:42:41;35.50;;;23.00;;
5549;SDS011;2798;42.716;23.256;2022-10-12T06:45:06;32.57;;;22.77;;
5549;SDS011;2798;42.716;23.256;2022-10-12T06:47:32;35.60;;;22.70;;
5549;SDS011;2798;42.716;23.256;2022-10-12T06:49:57;31.27;;;21.97;;
5549;SDS011;2798;42.716;23.256;2022-10-12T06:52:23;46.30;;;26.97;;
5549;SDS011;2798;42.716;23.256;2022-10-12T06:54:48;37.63;;;24.37;;
5549;SDS011;2798;42.716;23.256;2022-10-12T06:57:13;34.40;;;22.10;;
5549;SDS011;2798;42.716;23.256;2022-10-12T06:59:39;28.20;;;21.00;;
5549;SDS011;2798;42.716;23.256;2022-10-12T07:02:04;32.80;;;20.43;;
5549;SDS011;2798;42.716;23.256;2022-10-12T07:04:30;35.00;;;20.83;;
5549;SDS011;2798;42.716;23.256;2022-10-12T07:06:55;31.83;;;20.50;;
5549;SDS011;2798;42.716;23.256;2022-10-12T07:09:21;32.30;;;20.63;;
5549;SDS011;2798;42.716;23.256;2022-10-12T07:11:46;38.60;;;20.30;;
5549;SDS011;2798;42.716;23.256;2022-10-12T07:14:12;32.70;;;19.93;;
5549;SDS011;2798;42.716;23.256;2022-10-12T07:16:37;34.80;;;20.80;;
5549;SDS011;2798;42.716;23.256;2022-10-12T07:19:02;28.03;;;19.53;;
5549;SDS011;2798;42.716;23.256;2022-10-12T07:21:28;28.37;;;19.53;;
5549;SDS011;2798;42.716;23.256;2022-10-12T07:23:53;29.43;;;18.90;;
5549;SDS011;2798;42.716;23.256;2022-10-12T07:26:19;29.33;;;18.50;;
5549;SDS011;2798;42.716;23.256;2022-10-12T07:28:44;25.03;;;17.80;;
5549;SDS011;2798;42.716;23.256;2022-10-12T07:31:09;30.63;;;18.53;;
5549;SDS011;2798;42.716;23.256;2022-10-12T07:33:36;27.30;;;17.73;;
5549;SDS011;2798;42.716;23.256;2022-10-12T07:36:05;22.87;;;17.10;;
5549;SDS011;2798;42.716;23.256;2022-10-12T07:38:31;26.30;;;17.23;;
5549;SDS011;2798;42.716;23.256;2022-10-12T07:40:57;21.90;;;17.13;;
5549;SDS011;2798;42.716;23.256;2022-10-12T07:43:26;22.10;;;16.33;;
5549;SDS011;2798;42.716;23.256;2022-10-12T07:45:54;25.57;;;16.80;;
5549;SDS011;2798;42.716;23.256;2022-10-12T07:48:19;28.53;;;16.70;;
5549;SDS011;2798;42.716;23.256;2022-10-12T07:50:45;23.20;;;16.30;;
5549;SDS011;2798;42.716;23.256;2022-10-12T07:53:11;26.07;;;17.70;;
5549;SDS011;2798;42.716;23.256;2022-10-12T07:55:37;21.90;;;16.37;;
5549;SDS011;2798;42.716;23.256;2022-10-12T07:58:03;24.07;;;16.93;;
5549;SDS011;2798;42.716;23.256;2022-10-12T08:00:29;21.73;;;15.90;;
5549;SDS011;2798;42.716;23.256;2022-10-12T08:02:56;28.53;;;15.60;;
5549;SDS011;2798;42.716;23.256;2022-10-12T08:05:22;22.40;;;16.17;;
5549;SDS011;2798;42.716;23.256;2022-10-12T08:07:49;30.37;;;17.60;;
5549;SDS011;2798;42.716;23.256;2022-10-12T08:10:15;30.23;;;16.67;;
5549;SDS011;2798;42.716;23.256;2022-10-12T08:12:42;27.90;;;16.00;;
5549;SDS011;2798;42.716;23.256;2022-10-12T08:15:09;27.53;;;17.30;;
5549;SDS011;2798;42.716;23.256;2022-10-12T08:17:35;30.70;;;17.07;;
5549;SDS011;2798;42.716;23.256;2022-10-12T08:20:01;26.20;;;17.00;;
5549;SDS011;2798;42.716;23.256;2022-10-12T08:22:27;23.33;;;16.80;;
5549;SDS011;2798;42.716;23.256;2022-10-12T08:24:52;31.50;;;17.43;;
5549;SDS011;2798;42.716;23.256;2022-10-12T08:27:18;28.30;;;17.87;;
5549;SDS011;2798;42.716;23.256;2022-10-12T08:29:43;32.73;;;16.77;;
5549;SDS011;2798;42.716;23.256;2022-10-12T08:32:09;24.40;;;16.43;;
5549;SDS011;2798;42.716;23.256;2022-10-12T08:34:34;30.00;;;17.70;;
5549;SDS011;2798;42.716;23.256;2022-10-12T08:36:59;27.80;;;18.07;;
5549;SDS011;2798;42.716;23.256;2022-10-12T08:39:25;25.80;;;17.93;;
5549;SDS011;2798;42.716;23.256;2022-10-12T08:42:00;31.87;;;19.07;;
5549;SDS011;2798;42.716;23.256;2022-10-12T08:47:49;28.90;;;19.70;;
5549;SDS011;2798;42.716;23.256;2022-10-12T08:50:39;28.87;;;19.17;;
5549;SDS011;2798;42.716;23.256;2022-10-12T08:53:13;25.47;;;17.67;;
5549;SDS011;2798;42.716;23.256;2022-10-12T08:55:44;30.53;;;17.27;;
5549;SDS011;2798;42.716;23.256;2022-10-12T08:58:24;28.17;;;16.57;;
5549;SDS011;2798;42.716;23.256;2022-10-12T09:01:01;26.97;;;16.97;;
5549;SDS011;2798;42.716;23.256;2022-10-12T09:04:07;30.10;;;16.73;;
5549;SDS011;2798;42.716;23.256;2022-10-12T09:14:52;26.97;;;16.43;;
5549;SDS011;2798;42.716;23.256;2022-10-12T09:17:29;31.73;;;17.27;;
5549;SDS011;2798;42.716;23.256;2022-10-12T09:22:52;25.30;;;16.67;;
5549;SDS011;2798;42.716;23.256;2022-10-12T09:25:23;25.40;;;15.57;;
5549;SDS011;2798;42.716;23.256;2022-10-12T09:27:50;19.37;;;14.13;;
5549;SDS011;2798;42.716;23.256;2022-10-12T09:30:17;23.40;;;14.27;;
5549;SDS011;2798;42.716;23.256;2022-10-12T09:35:39;21.20;;;13.87;;
5549;SDS011;2798;42.716;23.256;2022-10-12T09:38:07;22.63;;;14.00;;
5549;SDS011;2798;42.716;23.256;2022-10-12T09:40:34;26.63;;;14.30;;
5549;SDS011;2798;42.716;23.256;2022-10-12T09:42:59;20.73;;;12.70;;
5549;SDS011;2798;42.716;23.256;2022-10-12T09:45:27;19.87;;;13.10;;
5549;SDS011;2798;42.716;23.256;2022-10-12T09:48:09;16.10;;;11.63;;
5549;SDS011;2798;42.716;23.256;2022-10-12T09:50:47;18.73;;;11.63;;
5549;SDS011;2798;42.716;23.256;2022-10-12T09:53:18;15.70;;;11.80;;
5549;SDS011;2798;42.716;23.256;2022-10-12T09:55:50;16.40;;;10.90;;
5549;SDS011;2798;42.716;23.256;2022-10-12T09:58:22;16.17;;;10.93;;
5549;SDS011;2798;42.716;23.256;2022-10-12T10:03:43;15.67;;;11.40;;
5549;SDS011;2798;42.716;23.256;2022-10-12T10:06:13;16.50;;;12.37;;
5549;SDS011;2798;42.716;23.256;2022-10-12T10:08:43;24.10;;;11.43;;
5549;SDS011;2798;42.716;23.256;2022-10-12T10:11:28;15.47;;;11.90;;
5549;SDS011;2798;42.716;23.256;2022-10-12T10:13:55;21.53;;;11.70;;
5549;SDS011;2798;42.716;23.256;2022-10-12T10:16:24;18.93;;;12.00;;
5549;SDS011;2798;42.716;23.256;2022-10-12T10:18:57;16.70;;;11.73;;
5549;SDS011;2798;42.716;23.256;2022-10-12T10:21:34;17.00;;;12.03;;
5549;SDS011;2798;42.716;23.256;2022-10-12T10:24:06;19.37;;;11.90;;
5549;SDS011;2798;42.716;23.256;2022-10-12T10:26:52;15.30;;;11.90;;
5549;SDS011;2798;42.716;23.256;2022-10-12T10:32:09;16.07;;;11.57;;
5549;SDS011;2798;42.716;23.256;2022-10-12T10:34:40;17.10;;;10.80;;
5549;SDS011;2798;42.716;23.256;2022-10-12T10:37:06;13.07;;;10.70;;
5549;SDS011;2798;42.716;23.256;2022-10-12T10:39:45;21.97;;;12.20;;
5549;SDS011;2798;42.716;23.256;2022-10-12T10:42:16;15.30;;;11.57;;
5549;SDS011;2798;42.716;23.256;2022-10-12T10:44:45;14.87;;;11.93;;
5549;SDS011;2798;42.716;23.256;2022-10-12T10:47:14;16.77;;;12.30;;
5549;SDS011;2798;42.716;23.256;2022-10-12T10:52:26;15.17;;;11.20;;
5549;SDS011;2798;42.716;23.256;2022-10-12T10:57:34;15.73;;;12.20;;
5549;SDS011;2798;42.716;23.256;2022-10-12T11:00:05;14.53;;;11.47;;
5549;SDS011;2798;42.716;23.256;2022-10-12T11:02:41;19.80;;;12.93;;
5549;SDS011;2798;42.716;23.256;2022-10-12T11:05:31;18.20;;;11.47;;
5549;SDS011;2798;42.716;23.256;2022-10-12T11:08:01;21.53;;;12.43;;
5549;SDS011;2798;42.716;23.256;2022-10-12T11:10:47;17.80;;;12.37;;
5549;SDS011;2798;42.716;23.256;2022-10-12T11:13:25;20.23;;;11.93;;
5549;SDS011;2798;42.716;23.256;2022-10-12T11:15:57;15.10;;;11.43;;
5549;SDS011;2798;42.716;23.256;2022-10-12T11:21:15;15.17;;;10.17;;
5549;SDS011;2798;42.716;23.256;2022-10-12T11:23:47;15.93;;;11.47;;
5549;SDS011;2798;42.716;23.256;2022-10-12T11:28:51;17.83;;;10.90;;
5549;SDS011;2798;42.716;23.256;2022-10-12T11:31:20;15.63;;;12.37;;
5549;SDS011;2798;42.716;23.256;2022-10-12T11:33:50;19.10;;;12.10;;
5549;SDS011;2798;42.716;23.256;2022-10-12T11:36:19;18.60;;;10.50;;
5549;SDS011;2798;42.716;23.256;2022-10-12T11:38:51;16.47;;;11.50;;
5549;SDS011;2798;42.716;23.256;2022-10-12T11:41:33;17.00;;;10.83;;
5549;SDS011;2798;42.716;23.256;2022-10-12T11:44:10;15.00;;;10.63;;
5549;SDS011;2798;42.716;23.256;2022-10-12T11:46:48;15.97;;;10.37;;
5549;SDS011;2798;42.716;23.256;2022-10-12T11:49:27;13.90;;;10.20;;
5549;SDS011;2798;42.716;23.256;2022-10-12T11:51:57;14.00;;;11.10;;
5549;SDS011;2798;42.716;23.256;2022-10-12T11:54:45;14.07;;;10.60;;
5549;SDS011;2798;42.716;23.256;2022-10-12T11:57:39;11.83;;;9.00;;
5549;SDS011;2798;42.716;23.256;2022-10-12T12:00:16;19.20;;;11.50;;
5549;SDS011;2798;42.716;23.256;2022-10-12T12:02:49;11.80;;;9.20;;
5549;SDS011;2798;42.716;23.256;2022-10-12T12:05:19;13.50;;;9.47;;
5549;SDS011;2798;42.716;23.256;2022-10-12T12:07:54;17.43;;;10.60;;
5549;SDS011;2798;42.716;23.256;2022-10-12T12:15:35;10.17;;;8.40;;
5549;SDS011;2798;42.716;23.256;2022-10-12T12:18:14;13.90;;;9.40;;
5549;SDS011;2798;42.716;23.256;2022-10-12T12:23:17;14.57;;;9.27;;
5549;SDS011;2798;42.716;23.256;2022-10-12T12:26:31;13.77;;;9.50;;
5549;SDS011;2798;42.716;23.256;2022-10-12T12:28:42;12.60;;;9.40;;
5549;SDS011;2798;42.716;23.256;2022-10-12T12:31:12;10.70;;;8.83;;
5549;SDS011;2798;42.716;23.256;2022-10-12T12:34:04;16.10;;;9.10;;
5549;SDS011;2798;42.716;23.256;2022-10-12T12:36:41;13.20;;;9.90;;
5549;SDS011;2798;42.716;23.256;2022-10-12T12:42:05;11.43;;;10.03;;
5549;SDS011;2798;42.716;23.256;2022-10-12T12:52:23;15.47;;;10.40;;
5549;SDS011;2798;42.716;23.256;2022-10-12T12:58:00;15.00;;;10.67;;
5549;SDS011;2798;42.716;23.256;2022-10-12T13:00:33;13.77;;;10.53;;
5549;SDS011;2798;42.716;23.256;2022-10-12T13:14:08;18.47;;;11.00;;
5549;SDS011;2798;42.716;23.256;2022-10-12T13:19:33;14.57;;;11.13;;
5549;SDS011;2798;42.716;23.256;2022-10-12T13:22:05;15.10;;;10.97;;
5549;SDS011;2798;42.716;23.256;2022-10-12T13:24:41;18.13;;;10.40;;
5549;SDS011;2798;42.716;23.256;2022-10-12T13:35:13;15.50;;;11.20;;
5549;SDS011;2798;42.716;23.256;2022-10-12T13:37:57;20.30;;;12.33;;
5549;SDS011;2798;42.716;23.256;2022-10-12T13:40:37;16.10;;;11.10;;
5549;SDS011;2798;42.716;23.256;2022-10-12T13:45:55;16.87;;;12.20;;
5549;SDS011;2798;42.716;23.256;2022-10-12T13:48:21;18.20;;;11.90;;
5549;SDS011;2798;42.716;23.256;2022-10-12T13:53:20;16.97;;;11.30;;
5549;SDS011;2798;42.716;23.256;2022-10-12T13:55:51;17.20;;;10.70;;
5549;SDS011;2798;42.716;23.256;2022-10-12T13:58:23;25.07;;;13.00;;
5549;SDS011;2798;42.716;23.256;2022-10-12T14:00:55;18.03;;;12.70;;
5549;SDS011;2798;42.716;23.256;2022-10-12T14:03:25;16.60;;;12.93;;
5549;SDS011;2798;42.716;23.256;2022-10-12T14:05:51;17.70;;;13.00;;
5549;SDS011;2798;42.716;23.256;2022-10-12T14:08:25;20.90;;;12.37;;
5549;SDS011;2798;42.716;23.256;2022-10-12T14:10:52;19.30;;;12.60;;
5549;SDS011;2798;42.716;23.256;2022-10-12T14:13:28;15.50;;;13.00;;
5549;SDS011;2798;42.716;23.256;2022-10-12T14:15:57;18.60;;;12.37;;
5549;SDS011;2798;42.716;23.256;2022-10-12T14:18:31;17.53;;;12.10;;
5549;SDS011;2798;42.716;23.256;2022-10-12T14:28:48;14.70;;;10.93;;
5549;SDS011;2798;42.716;23.256;2022-10-12T14:31:13;17.93;;;11.90;;
5549;SDS011;2798;42.716;23.256;2022-10-12T14:33:39;17.10;;;11.90;;
5549;SDS011;2798;42.716;23.256;2022-10-12T14:38:46;20.73;;;12.63;;
5549;SDS011;2798;42.716;23.256;2022-10-12T14:46:34;15.17;;;12.40;;
5549;SDS011;2798;42.716;23.256;2022-10-12T14:49:02;17.30;;;11.77;;
5549;SDS011;2798;42.716;23.256;2022-10-12T14:51:27;20.70;;;13.23;;
5549;SDS011;2798;42.716;23.256;2022-10-12T14:53:57;21.33;;;12.43;;
5549;SDS011;2798;42.716;23.256;2022-10-12T14:56:23;15.27;;;11.70;;
5549;SDS011;2798;42.716;23.256;2022-10-12T14:58:48;15.50;;;11.83;;
5549;SDS011;2798;42.716;23.256;2022-10-12T15:01:14;16.40;;;11.63;;
5549;SDS011;2798;42.716;23.256;2022-10-12T15:03:39;19.60;;;11.13;;
5549;SDS011;2798;42.716;23.256;2022-10-12T15:06:05;19.83;;;13.40;;
5549;SDS011;2798;42.716;23.256;2022-10-12T15:08:30;15.77;;;11.67;;
5549;SDS011;2798;42.716;23.256;2022-10-12T15:10:56;16.37;;;12.20;;
5549;SDS011;2798;42.716;23.256;2022-10-12T15:13:21;15.70;;;11.20;;
5549;SDS011;2798;42.716;23.256;2022-10-12T15:15:47;18.00;;;11.67;;
5549;SDS011;2798;42.716;23.256;2022-10-12T15:18:13;20.37;;;11.43;;
5549;SDS011;2798;42.716;23.256;2022-10-12T15:20:38;14.80;;;11.37;;
5549;SDS011;2798;42.716;23.256;2022-10-12T15:23:04;17.43;;;12.10;;
5549;SDS011;2798;42.716;23.256;2022-10-12T15:27:59;16.00;;;12.40;;
5549;SDS011;2798;42.716;23.256;2022-10-12T15:30:25;16.80;;;12.00;;
5549;SDS011;2798;42.716;23.256;2022-10-12T15:32:50;15.97;;;10.77;;
5549;SDS011;2798;42.716;23.256;2022-10-12T15:35:17;21.43;;;13.33;;
5549;SDS011;2798;42.716;23.256;2022-10-12T15:37:50;16.00;;;12.67;;
5549;SDS011;2798;42.716;23.256;2022-10-12T15:40:17;17.73;;;12.97;;
5549;SDS011;2798;42.716;23.256;2022-10-12T15:42:45;14.50;;;11.40;;
5549;SDS011;2798;42.716;23.256;2022-10-12T15:45:19;18.90;;;12.23;;
5549;SDS011;2798;42.716;23.256;2022-10-12T15:47:47;14.83;;;11.37;;
5549;SDS011;2798;42.716;23.256;2022-10-12T15:50:13;17.63;;;12.03;;
5549;SDS011;2798;42.716;23.256;2022-10-12T15:52:40;16.10;;;11.80;;
5549;SDS011;2798;42.716;23.256;2022-10-12T15:55:47;16.03;;;12.50;;
5549;SDS011;2798;42.716;23.256;2022-10-12T15:57:55;17.40;;;10.80;;
5549;SDS011;2798;42.716;23.256;2022-10-12T16:00:22;16.30;;;11.10;;
5549;SDS011;2798;42.716;23.256;2022-10-12T16:02:53;19.27;;;11.60;;
5549;SDS011;2798;42.716;23.256;2022-10-12T16:05:20;16.33;;;12.57;;
5549;SDS011;2798;42.716;23.256;2022-10-12T16:07:54;18.40;;;11.97;;
5549;SDS011;2798;42.716;23.256;2022-10-12T16:10:20;16.70;;;12.07;;
5549;SDS011;2798;42.716;23.256;2022-10-12T16:12:48;20.30;;;14.57;;
5549;SDS011;2798;42.716;23.256;2022-10-12T16:15:26;18.13;;;13.30;;
5549;SDS011;2798;42.716;23.256;2022-10-12T16:17:53;14.80;;;11.73;;
5549;SDS011;2798;42.716;23.256;2022-10-12T16:20:20;15.93;;;11.47;;
5549;SDS011;2798;42.716;23.256;2022-10-12T16:22:46;19.07;;;12.50;;
5549;SDS011;2798;42.716;23.256;2022-10-12T16:25:14;13.43;;;10.87;;
5549;SDS011;2798;42.716;23.256;2022-10-12T16:27:41;14.20;;;10.83;;
5549;SDS011;2798;42.716;23.256;2022-10-12T16:30:07;15.03;;;10.60;;
5549;SDS011;2798;42.716;23.256;2022-10-12T16:32:34;15.40;;;10.83;;
5549;SDS011;2798;42.716;23.256;2022-10-12T16:35:00;19.83;;;11.43;;
5549;SDS011;2798;42.716;23.256;2022-10-12T16:37:25;14.70;;;10.87;;
5549;SDS011;2798;42.716;23.256;2022-10-12T16:39:51;14.57;;;10.70;;
5549;SDS011;2798;42.716;23.256;2022-10-12T16:42:18;15.63;;;11.33;;
5549;SDS011;2798;42.716;23.256;2022-10-12T16:44:43;17.20;;;10.90;;
5549;SDS011;2798;42.716;23.256;2022-10-12T16:47:09;16.77;;;10.20;;
5549;SDS011;2798;42.716;23.256;2022-10-12T16:49:35;14.50;;;11.07;;